Terminal Aerodrome Forecast
Issued by NWS

Home | Current Version | Previous Version | Text Only | Print | Product List | Glossary Off
Versions: 1 2 3 4 5 6 7 8 9 10 11 12 13 14 15 16 17 18 19 20 21 22 23 24 25 26 27 28

911
FTUS43 KLOT 220256 AAB
TAFMDW
TAF AMD
KMDW 220256Z 2203/2224 03015G25KT P6SM BKN022
     FM221500 05013KT P6SM BKN025
     FM221900 07010KT P6SM FEW035 SCT250=

USA.gov is the U.S. government's official web portal to all federal, state and local government web resources and services.